Time;durP1;ratioP1;P1;durP2;ratioP2;P2;SDS_P1;SDS_P2;PMS_P1;PMS_P2;Temp;Humidity;BMP_temperature;BMP_pressure;BME280_temperature;BME280_humidity;BME280_pressure;Samples;Min_cycle;Max_cycle;Signal;HPM_P1;HPM_P2
2023/12/17 00:00:46;;;;;;;;;;;;;;;1.88;100.00;102351.94;4982469;28;19918;-74
2023/12/17 00:03:11;;;;;;;;;;;;;;;1.89;100.00;102353.66;4984317;28;20396;-74
2023/12/17 00:05:37;;;;;;;;;;;;;;;2.07;100.00;102336.91;4963417;28;19921;-75
2023/12/17 00:08:02;;;;;;;;;;;;;;;1.92;100.00;102347.16;4982484;28;19918;-78
2023/12/17 00:10:27;;;;;;;;;;;;;;;2.23;100.00;102331.78;4978359;28;19918;-74
2023/12/17 00:12:53;;;;;;;;;;;;;;;2.79;100.00;102322.50;4982768;28;20384;-74
2023/12/17 00:15:18;;;;;;;;;;;;;;;2.90;100.00;102317.91;4962537;28;20377;-74
2023/12/17 00:17:44;;;;;;;;;;;;;;;2.60;100.00;102338.44;4985342;28;20388;-74
2023/12/17 00:20:10;;;;;;;;;;;;;;;2.35;100.00;102353.25;4977501;28;19945;-72
2023/12/17 00:22:36;;;;;;;;;;;;;;;2.29;100.00;102352.13;4983933;28;20020;-74
2023/12/17 00:25:02;;;;;;;;;;;;;;;2.67;100.00;102340.41;4980937;28;19929;-74
2023/12/17 00:27:27;;;;;;;;;;;;;;;2.81;100.00;102333.47;4979772;28;19918;-72
2023/12/17 00:29:52;;;;;;;;;;;;;;;3.06;100.00;102323.63;4963420;28;19922;-73
2023/12/17 00:32:18;;;;;;;;;;;;;;;3.06;100.00;102330.28;4978438;28;21302;-73
2023/12/17 00:34:43;;;;;;;;;;;;;;;3.15;100.00;102331.50;4961853;28;20307;-73
2023/12/17 00:37:08;;;;;;;;;;;;;;;3.01;100.00;102345.16;4965754;28;20402;-72
2023/12/17 00:39:34;;;;;;;;;;;;;;;3.12;100.00;102349.00;4961274;28;20367;-77
2023/12/17 00:41:59;;;;;;;;;;;;;;;3.07;100.00;102354.63;4963308;28;19918;-74
2023/12/17 00:44:24;;;;;;;;;;;;;;;3.21;100.00;102349.34;4978276;28;20020;-73
2023/12/17 00:46:50;;;;;;;;;;;;;;;3.29;100.00;102353.03;4984184;28;20407;-74
2023/12/17 00:49:15;;;;;;;;;;;;;;;3.17;100.00;102356.72;4980006;28;20001;-73
2023/12/17 00:51:40;;;;;;;;;;;;;;;3.19;100.00;102361.00;4976155;28;20300;-73
2023/12/17 00:54:06;;;;;;;;;;;;;;;3.28;100.00;102352.97;4977202;28;20009;-74
2023/12/17 00:56:31;;;;;;;;;;;;;;;3.17;100.00;102357.56;4978301;28;19921;-74
2023/12/17 00:58:57;;;;;;;;;;;;;;;3.30;100.00;102354.75;4978462;28;19945;-74
2023/12/17 01:01:22;;;;;;;;;;;;;;;3.21;100.00;102356.88;4982365;28;19918;-73
2023/12/17 01:03:47;;;;;;;;;;;;;;;3.32;100.00;102357.31;4978984;28;20360;-75
2023/12/17 01:06:12;;;;;;;;;;;;;;;3.28;100.00;102361.38;4978965;28;19925;-74
2023/12/17 01:08:38;;;;;;;;;;;;;;;3.14;100.00;102371.66;4978390;28;19918;-74
2023/12/17 01:11:03;;;;;;;;;;;;;;;3.29;100.00;102353.03;4960145;28;19924;-74
2023/12/17 01:13:29;;;;;;;;;;;;;;;3.05;100.00;102369.63;4980779;28;19926;-74
2023/12/17 01:15:54;;;;;;;;;;;;;;;3.33;100.00;102347.31;4981831;28;19917;-74
2023/12/17 01:18:19;;;;;;;;;;;;;;;3.23;100.00;102352.78;4963677;28;19921;-74
2023/12/17 01:20:45;;;;;;;;;;;;;;;3.30;100.00;102348.88;4960800;28;19925;-75
2023/12/17 01:23:10;;;;;;;;;;;;;;;3.42;100.00;102347.69;4977072;28;20451;-74
2023/12/17 01:25:35;;;;;;;;;;;;;;;3.34;100.00;102354.09;4979647;28;20427;-74
2023/12/17 01:28:01;;;;;;;;;;;;;;;3.41;100.00;102353.50;4962148;28;19956;-74
2023/12/17 01:30:26;;;;;;;;;;;;;;;3.32;100.00;102360.72;4961460;28;19968;-74
2023/12/17 01:32:52;;;;;;;;;;;;;;;3.43;100.00;102361.09;4961213;28;19917;-75
2023/12/17 01:35:17;;;;;;;;;;;;;;;3.34;100.00;102363.28;4959542;28;19918;-74
2023/12/17 01:37:42;;;;;;;;;;;;;;;3.38;100.00;102358.44;4983974;28;19961;-73
2023/12/17 01:40:08;;;;;;;;;;;;;;;3.33;100.00;102359.88;4980989;28;19917;-74
2023/12/17 01:42:33;;;;;;;;;;;;;;;3.41;100.00;102357.69;4957058;28;19925;-73
2023/12/17 01:44:59;;;;;;;;;;;;;;;3.27;100.00;102374.72;4965231;28;20344;-73
2023/12/17 01:47:24;;;;;;;;;;;;;;;3.42;100.00;102360.28;4962530;28;19918;-75
2023/12/17 01:49:50;;;;;;;;;;;;;;;3.32;100.00;102384.97;4980955;28;19922;-73
2023/12/17 01:52:15;;;;;;;;;;;;;;;3.52;100.00;102361.50;4981156;28;19924;-74
2023/12/17 01:54:41;;;;;;;;;;;;;;;3.56;100.00;102372.50;4980712;28;19956;-74
2023/12/17 01:57:06;;;;;;;;;;;;;;;3.56;100.00;102375.03;4986116;28;19917;-74
2023/12/17 01:59:32;;;;;;;;;;;;;;;3.54;100.00;102373.28;4980213;28;19913;-74
2023/12/17 02:01:57;;;;;;;;;;;;;;;3.48;100.00;102374.72;4975409;28;19918;-74
2023/12/17 02:04:23;;;;;;;;;;;;;;;3.46;100.00;102377.19;4964575;28;20340;-74
2023/12/17 02:06:48;;;;;;;;;;;;;;;3.33;100.00;102394.22;4966626;28;20001;-77
2023/12/17 02:09:14;;;;;;;;;;;;;;;3.50;100.00;102373.13;4978865;28;20414;-74
2023/12/17 02:11:39;;;;;;;;;;;;;;;3.33;100.00;102391.69;4977737;28;20342;-75
2023/12/17 02:14:04;;;;;;;;;;;;;;;3.42;100.00;102375.34;4985324;28;20011;-74
2023/12/17 02:16:30;;;;;;;;;;;;;;;3.32;100.00;102395.91;4982670;28;19925;-75
2023/12/17 02:18:58;;;;;;;;;;;;;;;3.27;100.00;102389.81;4986655;28;19924;-76
2023/12/17 02:21:25;;;;;;;;;;;;;;;3.03;100.00;102405.56;4967789;28;20387;-74
2023/12/17 02:23:50;;;;;;;;;;;;;;;3.05;100.00;102398.94;4981606;28;20163;-74
2023/12/17 02:26:17;;;;;;;;;;;;;;;3.21;100.00;102382.03;4980427;28;20436;-73
2023/12/17 02:28:42;;;;;;;;;;;;;;;3.26;100.00;102382.22;4983119;28;19917;-74
2023/12/17 02:31:08;;;;;;;;;;;;;;;3.35;100.00;102375.91;4968299;28;20277;-73
2023/12/17 02:33:33;;;;;;;;;;;;;;;3.27;100.00;102387.28;4979615;28;19998;-78
2023/12/17 02:35:58;;;;;;;;;;;;;;;3.15;100.00;102390.97;4986948;28;20004;-73
2023/12/17 02:38:24;;;;;;;;;;;;;;;3.29;100.00;102392.38;4978642;28;19926;-75
2023/12/17 02:40:49;;;;;;;;;;;;;;;3.16;100.00;102402.75;4981363;28;19918;-74
2023/12/17 02:43:14;;;;;;;;;;;;;;;3.33;100.00;102386.69;4965822;28;19929;-74
2023/12/17 02:45:40;;;;;;;;;;;;;;;3.39;100.00;102375.22;4981693;28;20410;-77
2023/12/17 02:48:05;;;;;;;;;;;;;;;3.09;100.00;102391.56;4978003;28;19977;-73
2023/12/17 02:50:30;;;;;;;;;;;;;;;3.25;100.00;102386.38;4969934;28;20739;-74
2023/12/17 02:52:56;;;;;;;;;;;;;;;3.17;100.00;102396.94;4979484;28;19961;-75
2023/12/17 02:55:21;;;;;;;;;;;;;;;3.28;100.00;102380.63;4964482;28;19918;-74
2023/12/17 02:57:46;;;;;;;;;;;;;;;3.11;100.00;102382.44;4985332;28;19921;-78
2023/12/17 03:00:13;;;;;;;;;;;;;;;3.30;100.00;102367.31;4985172;28;19921;-78
2023/12/17 03:02:39;;;;;;;;;;;;;;;3.21;100.00;102379.50;4966161;28;19917;-76
2023/12/17 03:05:04;;;;;;;;;;;;;;;3.25;100.00;102377.97;4965720;28;19968;-75
2023/12/17 03:07:29;;;;;;;;;;;;;;;3.32;100.00;102379.94;4987230;28;19917;-74
2023/12/17 03:09:55;;;;;;;;;;;;;;;3.31;100.00;102385.75;4963408;28;19917;-76
2023/12/17 03:12:20;;;;;;;;;;;;;;;3.33;100.00;102390.06;4983838;28;19925;-74
2023/12/17 03:14:46;;;;;;;;;;;;;;;3.23;100.00;102390.47;4962581;28;20269;-75
2023/12/17 03:17:11;;;;;;;;;;;;;;;3.10;100.00;102394.94;4963900;28;20020;-73
2023/12/17 03:19:36;;;;;;;;;;;;;;;3.05;100.00;102396.44;4968072;28;19953;-73
2023/12/17 03:22:02;;;;;;;;;;;;;;;3.21;100.00;102384.53;4960134;28;19917;-75
2023/12/17 03:24:27;;;;;;;;;;;;;;;3.29;100.00;102384.84;4981364;28;19929;-74
2023/12/17 03:26:53;;;;;;;;;;;;;;;3.38;100.00;102372.66;4984319;28;19921;-74
2023/12/17 03:29:18;;;;;;;;;;;;;;;3.20;100.00;102390.38;4965324;28;19924;-74
2023/12/17 03:31:44;;;;;;;;;;;;;;;3.07;100.00;102394.84;4981219;28;19940;-77
2023/12/17 03:34:10;;;;;;;;;;;;;;;3.18;100.00;102389.44;4963912;28;20377;-75
2023/12/17 03:36:39;;;;;;;;;;;;;;;3.15;100.00;102389.31;4984386;28;19925;-73
2023/12/17 03:39:04;;;;;;;;;;;;;;;3.30;100.00;102384.06;4985578;28;19921;-74
2023/12/17 03:41:29;;;;;;;;;;;;;;;3.21;100.00;102388.72;4983850;28;20489;-74
2023/12/17 03:43:56;;;;;;;;;;;;;;;3.21;100.00;102389.56;4983955;28;19926;-74
2023/12/17 03:46:22;;;;;;;;;;;;;;;3.24;100.00;102381.28;4965479;28;19929;-74
2023/12/17 03:48:48;;;;;;;;;;;;;;;3.31;100.00;102384.09;4980086;28;19917;-74
2023/12/17 03:51:14;;;;;;;;;;;;;;;3.33;100.00;102390.06;4966787;28;19925;-73
2023/12/17 03:53:39;;;;;;;;;;;;;;;3.30;100.00;102394.97;4986430;28;19968;-75
2023/12/17 03:56:08;;;;;;;;;;;;;;;3.25;100.00;102403.09;4979271;28;19922;-74
2023/12/17 03:58:34;;;;;;;;;;;;;;;3.35;100.00;102390.09;4981865;28;19949;-74
2023/12/17 04:01:00;;;;;;;;;;;;;;;3.24;100.00;102407.28;4983792;28;19957;-74
2023/12/17 04:03:26;;;;;;;;;;;;;;;3.18;100.00;102414.59;4975948;28;19917;-74
2023/12/17 04:05:51;;;;;;;;;;;;;;;3.24;100.00;102409.81;4979760;28;19917;-74
2023/12/17 04:08:16;;;;;;;;;;;;;;;3.15;100.00;102403.56;4964089;28;19929;-75
2023/12/17 04:10:42;;;;;;;;;;;;;;;3.19;100.00;102395.34;4960406;28;19941;-74
2023/12/17 04:13:07;;;;;;;;;;;;;;;3.05;100.00;102402.28;4964451;28;19922;-74
2023/12/17 04:15:32;;;;;;;;;;;;;;;3.16;100.00;102400.22;4964825;28;20395;-74
2023/12/17 04:17:58;;;;;;;;;;;;;;;3.10;100.00;102399.97;4977026;28;20417;-74
2023/12/17 04:20:23;;;;;;;;;;;;;;;3.27;100.00;102397.34;4983526;28;19925;-75
2023/12/17 04:22:49;;;;;;;;;;;;;;;3.24;100.00;102401.41;4984509;28;19918;-73
2023/12/17 04:25:14;;;;;;;;;;;;;;;3.40;100.00;102402.09;4982279;28;19972;-76
2023/12/17 04:27:40;;;;;;;;;;;;;;;3.36;100.00;102409.44;4984042;28;19921;-74
2023/12/17 04:30:06;;;;;;;;;;;;;;;3.41;100.00;102421.38;4985315;28;19980;-74
2023/12/17 04:32:31;;;;;;;;;;;;;;;3.31;100.00;102428.47;4980136;28;19922;-75
2023/12/17 04:34:57;;;;;;;;;;;;;;;3.36;100.00;102416.97;4977977;28;19918;-75
2023/12/17 04:37:22;;;;;;;;;;;;;;;3.18;100.00;102438.84;4975552;28;20443;-72
2023/12/17 04:39:48;;;;;;;;;;;;;;;3.28;100.00;102425.84;4967956;28;19918;-74
2023/12/17 04:42:13;;;;;;;;;;;;;;;3.28;100.00;102425.84;4960598;28;20411;-76
2023/12/17 04:44:39;;;;;;;;;;;;;;;3.24;100.00;102431.56;4979285;28;19960;-73
2023/12/17 04:47:04;;;;;;;;;;;;;;;3.29;100.00;102418.38;4968141;28;19917;-73
2023/12/17 04:49:29;;;;;;;;;;;;;;;3.31;100.00;102423.47;4980326;28;20352;-74
2023/12/17 04:51:55;;;;;;;;;;;;;;;3.38;100.00;102421.28;4982390;28;20008;-73
2023/12/17 04:54:20;;;;;;;;;;;;;;;3.36;100.00;102425.38;4983482;28;19921;-73
2023/12/17 04:56:45;;;;;;;;;;;;;;;3.33;100.00;102432.78;4967546;28;19918;-72
2023/12/17 04:59:11;;;;;;;;;;;;;;;3.30;100.00;102439.34;4982048;28;20320;-72
2023/12/17 05:01:36;;;;;;;;;;;;;;;3.39;100.00;102427.16;4980750;28;19944;-73
2023/12/17 05:04:01;;;;;;;;;;;;;;;3.19;100.00;102441.41;4981394;28;19926;-73
2023/12/17 05:06:27;;;;;;;;;;;;;;;3.00;100.00;102453.13;4984591;28;19918;-73
2023/12/17 05:08:52;;;;;;;;;;;;;;;3.16;100.00;102447.97;4962811;28;19918;-73
2023/12/17 05:11:17;;;;;;;;;;;;;;;3.39;100.00;102435.56;4978423;28;20372;-79
2023/12/17 05:13:43;;;;;;;;;;;;;;;3.42;100.00;102439.84;4983007;28;20388;-75
2023/12/17 05:16:08;;;;;;;;;;;;;;;3.04;100.00;102463.41;4980398;28;20372;-72
2023/12/17 05:18:34;;;;;;;;;;;;;;;3.07;100.00;102458.47;4978347;28;20393;-73
2023/12/17 05:20:59;;;;;;;;;;;;;;;3.06;100.00;102466.84;4980283;28;19918;-74
2023/12/17 05:23:24;;;;;;;;;;;;;;;3.04;100.00;102465.91;4982264;28;19926;-74
2023/12/17 05:25:50;;;;;;;;;;;;;;;3.19;100.00;102459.00;4978934;28;19970;-73
2023/12/17 05:28:15;;;;;;;;;;;;;;;3.18;100.00;102464.84;4964902;28;20381;-75
2023/12/17 05:30:40;;;;;;;;;;;;;;;3.13;100.00;102471.31;4963349;28;19921;-73
2023/12/17 05:33:07;;;;;;;;;;;;;;;3.16;100.00;102478.13;4974273;28;20033;-73
2023/12/17 05:35:32;;;;;;;;;;;;;;;3.23;100.00;102475.94;4980791;28;20016;-73
2023/12/17 05:37:57;;;;;;;;;;;;;;;3.22;100.00;102475.88;4963654;28;20448;-73
2023/12/17 05:40:23;;;;;;;;;;;;;;;3.25;100.00;102479.38;4965352;28;19930;-73
2023/12/17 05:42:48;;;;;;;;;;;;;;;3.19;100.00;102486.66;4978537;28;20412;-74
2023/12/17 05:45:14;;;;;;;;;;;;;;;3.16;100.00;102481.50;4959878;28;19918;-75
2023/12/17 05:47:39;;;;;;;;;;;;;;;2.44;100.00;102519.31;4966368;28;19926;-75
2023/12/17 05:50:05;;;;;;;;;;;;;;;2.34;100.00;102521.31;4982701;28;19917;-74
2023/12/17 05:52:30;;;;;;;;;;;;;;;2.21;100.00;102534.09;4981889;28;20008;-76
2023/12/17 05:54:55;;;;;;;;;;;;;;;1.59;100.00;102551.09;4980825;28;19918;-76
2023/12/17 05:57:21;;;;;;;;;;;;;;;1.37;100.00;102541.66;4985007;28;19921;-74
2023/12/17 05:59:46;;;;;;;;;;;;;;;1.16;100.00;102544.72;4979653;28;19917;-75
2023/12/17 06:02:12;;;;;;;;;;;;;;;1.58;100.00;102517.69;4974865;28;20323;-73
2023/12/17 06:04:37;;;;;;;;;;;;;;;1.24;100.00;102525.94;4983005;28;19941;-74
2023/12/17 06:07:02;;;;;;;;;;;;;;;1.04;100.00;102524.91;4977010;28;19918;-74
2023/12/17 06:09:28;;;;;;;;;;;;;;;1.73;100.00;102487.47;4964510;28;20012;-72
2023/12/17 06:11:57;;;;;;;;;;;;;;;1.82;100.00;102487.06;4981687;28;20589;-75
2023/12/17 06:14:23;;;;;;;;;;;;;;;1.73;100.00;102489.97;4964989;28;20327;-73
2023/12/17 06:16:48;;;;;;;;;;;;;;;1.86;100.00;102477.25;4979670;28;19924;-74
2023/12/17 06:19:13;;;;;;;;;;;;;;;1.68;100.00;102478.88;4977388;28;20008;-75
2023/12/17 06:21:39;;;;;;;;;;;;;;;1.70;100.00;102482.31;4965273;28;19963;-74
2023/12/17 06:24:04;;;;;;;;;;;;;;;2.72;100.00;102450.22;4979395;28;20404;-73
2023/12/17 06:26:30;;;;;;;;;;;;;;;4.88;100.00;102366.47;4981188;28;19922;-71
2023/12/17 06:28:55;;;;;;;;;;;;;;;6.59;100.00;102338.06;4981758;28;19929;-73
2023/12/17 06:31:21;;;;;;;;;;;;;;;6.22;100.00;102398.50;4958812;28;19922;-76
2023/12/17 06:33:47;;;;;;;;;;;;;;;5.78;100.00;102442.59;4967453;28;19922;-74
2023/12/17 06:36:12;;;;;;;;;;;;;;;7.93;100.00;102385.13;4980054;28;19949;-73
2023/12/17 06:38:40;;;;;;;;;;;;;;;8.01;100.00;102430.09;4963071;28;19917;-73
2023/12/17 06:41:09;;;;;;;;;;;;;;;6.05;100.00;102547.00;4967819;28;19976;-73
2023/12/17 06:43:36;;;;;;;;;;;;;;;8.23;100.00;102466.88;4962883;28;19921;-74
2023/12/17 06:46:01;;;;;;;;;;;;;;;9.00;100.00;102488.78;4965730;28;20352;-75
2023/12/17 06:48:26;;;;;;;;;;;;;;;8.03;100.00;102565.22;4967456;28;19917;-73
2023/12/17 06:50:52;;;;;;;;;;;;;;;7.76;100.00;102594.94;4982918;28;20008;-73
2023/12/17 06:53:17;;;;;;;;;;;;;;;9.43;100.00;102540.34;4982907;28;20520;-74
2023/12/17 06:55:43;;;;;;;;;;;;;;;9.56;100.00;102577.88;4966968;28;20012;-72
2023/12/17 06:58:09;;;;;;;;;;;;;;;9.25;100.00;102612.78;4966556;28;19924;-75
2023/12/17 07:00:34;;;;;;;;;;;;;;;9.13;100.00;102632.84;4981318;28;20351;-74
2023/12/17 07:03:00;;;;;;;;;;;;;;;5.57;100.00;102779.13;4986352;28;20380;-74
2023/12/17 07:05:25;;;;;;;;;;;;;;;3.42;100.00;102839.59;4986806;28;19935;-74
2023/12/17 07:07:50;;;;;;;;;;;;;;;2.63;100.00;102827.34;4964546;28;19928;-73
2023/12/17 07:10:16;;;;;;;;;;;;;;;2.80;100.00;102791.34;4970481;28;19945;-74
2023/12/17 07:12:41;;;;;;;;;;;;;;;2.84;100.00;102763.09;4969874;28;20008;-73
2023/12/17 07:15:07;;;;;;;;;;;;;;;3.40;100.00;102725.53;4967595;28;19918;-74
2023/12/17 07:17:32;;;;;;;;;;;;;;;2.99;100.00;102732.81;4965196;28;19991;-74
2023/12/17 07:19:58;;;;;;;;;;;;;;;2.60;100.00;102735.13;4968051;28;20503;-73
2023/12/17 07:22:23;;;;;;;;;;;;;;;3.38;100.00;102676.84;4983120;28;19937;-73
2023/12/17 07:24:49;;;;;;;;;;;;;;;3.34;100.00;102682.50;4968237;28;19921;-74
2023/12/17 07:27:14;;;;;;;;;;;;;;;2.96;100.00;102682.41;4968473;28;20009;-73
2023/12/17 07:29:40;;;;;;;;;;;;;;;3.20;100.00;102664.31;4987656;28;20097;-73
2023/12/17 07:32:05;;;;;;;;;;;;;;;2.70;100.00;102675.28;4976375;28;20016;-74
2023/12/17 07:34:31;;;;;;;;;;;;;;;3.06;100.00;102650.25;4984602;28;19969;-75
2023/12/17 07:36:56;;;;;;;;;;;;;;;2.85;100.00;102656.81;4966223;28;19933;-73
2023/12/17 07:39:21;;;;;;;;;;;;;;;3.13;100.00;102639.66;4969617;28;19980;-73
2023/12/17 07:41:47;;;;;;;;;;;;;;;3.46;100.00;102623.59;4968980;28;19918;-73
2023/12/17 07:44:12;;;;;;;;;;;;;;;2.74;100.00;102650.41;4968923;28;19928;-74
2023/12/17 07:46:38;;;;;;;;;;;;;;;3.19;100.00;102622.34;4967086;28;19917;-74
2023/12/17 07:49:03;;;;;;;;;;;;;;;2.90;100.00;102636.91;4982340;28;20013;-74
2023/12/17 07:51:28;;;;;;;;;;;;;;;2.89;100.00;102615.97;4985546;28;19921;-74
2023/12/17 07:53:54;;;;;;;;;;;;;;;3.47;100.00;102586.72;4987165;28;19924;-78
2023/12/17 07:56:19;;;;;;;;;;;;;;;3.14;100.00;102597.81;4970373;28;19925;-73
2023/12/17 07:58:44;;;;;;;;;;;;;;;3.28;100.00;102582.56;4982832;28;19929;-73
2023/12/17 08:01:10;;;;;;;;;;;;;;;3.16;100.00;102582.03;4964805;28;19925;-74
2023/12/17 08:03:35;;;;;;;;;;;;;;;3.45;100.00;102556.47;4983838;28;20380;-73
2023/12/17 08:06:01;;;;;;;;;;;;;;;3.56;100.00;102544.38;4984062;28;20016;-73
2023/12/17 08:08:27;;;;;;;;;;;;;;;3.84;100.00;102519.56;4984968;28;20411;-74
2023/12/17 08:10:53;;;;;;;;;;;;;;;3.42;100.00;102546.31;4986232;28;19968;-74
2023/12/17 08:13:18;;;;;;;;;;;;;;;3.96;100.00;102514.16;4969353;28;20009;-78
2023/12/17 08:15:43;;;;;;;;;;;;;;;3.48;100.00;102531.50;4967777;28;19933;-74
2023/12/17 08:18:09;;;;;;;;;;;;;;;3.45;100.00;102528.81;4967529;28;19917;-75
2023/12/17 08:20:34;;;;;;;;;;;;;;;3.17;100.00;102533.47;4970651;28;19917;-77
2023/12/17 08:22:59;;;;;;;;;;;;;;;2.91;100.00;102533.97;4967127;28;19922;-75
2023/12/17 08:25:25;;;;;;;;;;;;;;;3.05;100.00;102512.84;4985808;28;20020;-74
2023/12/17 08:27:50;;;;;;;;;;;;;;;3.72;100.00;102465.38;4966988;28;19926;-76
2023/12/17 08:30:17;;;;;;;;;;;;;;;3.53;100.00;102475.50;4984873;28;20320;-75
2023/12/17 08:32:44;;;;;;;;;;;;;;;3.97;100.00;102435.34;4983662;28;19926;-74
2023/12/17 08:35:10;;;;;;;;;;;;;;;3.98;100.00;102422.81;4983648;28;20041;-73
2023/12/17 08:37:35;;;;;;;;;;;;;;;5.39;100.00;102347.16;4963369;28;19988;-76
2023/12/17 08:40:03;;;;;;;;;;;;;;;6.64;100.00;102257.31;4987440;28;19931;-75
2023/12/17 08:42:28;;;;;;;;;;;;;;;3.99;100.00;102404.41;4969242;28;19924;-71
2023/12/17 08:44:53;;;;;;;;;;;;;;;4.14;100.00;102389.03;4975705;28;19918;-73
2023/12/17 08:47:19;;;;;;;;;;;;;;;4.13;100.00;102387.28;4984754;28;19953;-72
2023/12/17 08:49:44;;;;;;;;;;;;;;;3.93;100.00;102380.66;4960153;28;19918;-72
2023/12/17 08:52:09;;;;;;;;;;;;;;;3.92;100.00;102377.28;4979575;28;19921;-71
2023/12/17 08:54:35;;;;;;;;;;;;;;;3.76;100.00;102375.00;4978090;28;20009;-71
2023/12/17 08:57:00;;;;;;;;;;;;;;;3.80;100.00;102366.78;4981805;28;20347;-72
2023/12/17 08:59:25;;;;;;;;;;;;;;;3.90;100.00;102343.66;4982216;28;19925;-72
2023/12/17 09:01:52;;;;;;;;;;;;;;;3.77;100.00;102336.47;4980935;28;19926;-71
2023/12/17 09:04:17;;;;;;;;;;;;;;;4.41;100.00;102291.81;4978661;28;20308;-72
2023/12/17 09:06:47;;;;;;;;;;;;;;;4.64;100.00;102269.91;4957849;28;19922;-71
2023/12/17 09:09:13;;;;;;;;;;;;;;;4.20;100.00;102301.13;4981373;28;20424;-71
2023/12/17 09:11:43;;;;;;;;;;;;;;;4.10;100.00;102294.91;4981781;28;19918;-75
2023/12/17 09:14:08;;;;;;;;;;;;;;;3.82;100.00;102302.28;4960499;28;19926;-72
2023/12/17 09:16:34;;;;;;;;;;;;;;;4.61;100.00;102254.72;4976954;28;19924;-71
2023/12/17 09:19:00;;;;;;;;;;;;;;;4.75;100.00;102248.47;4960093;28;19918;-71
2023/12/17 09:21:33;;;;;;;;;;;;;;;4.55;100.00;102255.38;4976827;28;20396;-71
2023/12/17 09:23:58;;;;;;;;;;;;;;;4.15;100.00;102265.75;4958341;28;20320;-72
2023/12/17 09:26:24;;;;;;;;;;;;;;;4.43;100.00;102249.06;4964121;28;19918;-71
2023/12/17 09:28:50;;;;;;;;;;;;;;;4.92;100.00;102204.47;4981088;28;19918;-71
2023/12/17 09:31:15;;;;;;;;;;;;;;;4.71;100.00;102218.94;4960136;28;20416;-71
2023/12/17 09:33:40;;;;;;;;;;;;;;;4.62;100.00;102223.66;4984603;28;19918;-72
2023/12/17 09:36:09;;;;;;;;;;;;;;;5.01;100.00;102197.22;4986193;28;20004;-71
2023/12/17 09:38:35;;;;;;;;;;;;;;;4.80;100.00;102211.66;4979319;28;20319;-72
2023/12/17 09:41:01;;;;;;;;;;;;;;;4.69;100.00;102206.31;4962016;28;19925;-71
2023/12/17 09:43:26;;;;;;;;;;;;;;;5.10;100.00;102183.22;4966458;28;19918;-74
2023/12/17 09:45:51;;;;;;;;;;;;;;;5.15;100.00;102178.31;4979793;28;19918;-71
2023/12/17 09:48:17;;;;;;;;;;;;;;;5.25;100.00;102158.44;4961964;28;19926;-71
2023/12/17 09:50:42;;;;;;;;;;;;;;;5.01;100.00;102170.31;4961664;28;20004;-70
2023/12/17 09:53:08;;;;;;;;;;;;;;;5.04;100.00;102155.31;4981022;28;19918;-71
2023/12/17 09:55:35;;;;;;;;;;;;;;;4.98;100.00;102156.78;4978770;28;19925;-72
2023/12/17 09:58:04;;;;;;;;;;;;;;;5.08;100.00;102147.03;4961690;28;20849;-71
2023/12/17 10:00:29;;;;;;;;;;;;;;;5.47;100.00;102118.72;4964471;28;20020;-73
2023/12/17 10:03:03;;;;;;;;;;;;;;;5.40;100.00;102126.91;4963647;28;20017;-72
2023/12/17 10:05:28;;;;;;;;;;;;;;;5.88;100.00;102096.28;4965739;28;19922;-73
2023/12/17 10:07:54;;;;;;;;;;;;;;;5.70;100.00;102112.59;4982924;28;19918;-71
2023/12/17 10:10:20;;;;;;;;;;;;;;;5.92;100.00;102102.28;4978870;28;19922;-71
2023/12/17 10:12:45;;;;;;;;;;;;;;;6.05;100.00;102104.28;4982415;28;19954;-71
2023/12/17 10:15:10;;;;;;;;;;;;;;;6.18;100.00;102091.13;4965738;28;19925;-71
2023/12/17 10:17:40;;;;;;;;;;;;;;;6.22;100.00;102095.44;4978108;28;19925;-71
2023/12/17 10:20:06;;;;;;;;;;;;;;;6.29;100.00;102096.44;4962136;28;19981;-73
2023/12/17 10:22:31;;;;;;;;;;;;;;;6.37;100.00;102095.81;4962114;28;19973;-74
2023/12/17 10:24:57;;;;;;;;;;;;;;;6.22;100.00;102103.00;4964374;28;19960;-74
2023/12/17 10:27:22;;;;;;;;;;;;;;;6.24;100.00;102100.53;4981268;28;20024;-73
2023/12/17 10:29:52;;;;;;;;;;;;;;;6.09;100.00;102106.06;4962113;28;19917;-74
2023/12/17 10:32:23;;;;;;;;;;;;;;;6.50;100.00;102077.56;4965774;28;19968;-72
2023/12/17 10:34:50;;;;;;;;;;;;;;;6.59;100.00;102067.69;4974978;28;19980;-72
2023/12/17 10:37:22;;;;;;;;;;;;;;;6.68;100.00;102060.28;4983679;28;19960;-73
2023/12/17 10:39:49;;;;;;;;;;;;;;;6.63;100.00;102064.41;4986494;28;20392;-72
2023/12/17 10:42:16;;;;;;;;;;;;;;;6.49;100.00;102072.50;4969370;28;19918;-72
2023/12/17 10:44:43;;;;;;;;;;;;;;;6.69;100.00;102046.00;4966210;28;20288;-73
2023/12/17 10:47:11;;;;;;;;;;;;;;;6.86;100.00;102053.09;4982500;28;19957;-73
2023/12/17 10:49:36;;;;;;;;;;;;;;;6.84;100.00;102056.41;4979863;28;19940;-73
2023/12/17 10:52:02;;;;;;;;;;;;;;;6.65;100.00;102070.34;4983551;28;20396;-75
2023/12/17 10:54:28;;;;;;;;;;;;;;;6.61;100.00;102071.09;4966518;28;20393;-74
2023/12/17 10:56:56;;;;;;;;;;;;;;;6.34;100.00;102016.59;4984381;28;20372;-76
2023/12/17 10:59:27;;;;;;;;;;;;;;;6.87;100.00;102048.91;4984287;28;19945;-74
2023/12/17 11:01:55;;;;;;;;;;;;;;;6.79;100.00;102046.19;4969450;28;19917;-73
2023/12/17 11:04:23;;;;;;;;;;;;;;;6.94;100.00;102033.03;4970769;28;19918;-74
2023/12/17 11:06:48;;;;;;;;;;;;;;;6.91;100.00;102028.75;4964239;28;19940;-73
2023/12/17 11:09:15;;;;;;;;;;;;;;;6.74;100.00;102039.34;4965782;28;20381;-73
2023/12/17 11:11:40;;;;;;;;;;;;;;;6.95;100.00;102037.28;4963274;28;19933;-74
2023/12/17 11:14:05;;;;;;;;;;;;;;;7.08;100.00;102021.50;4981744;28;20363;-74
2023/12/17 11:16:32;;;;;;;;;;;;;;;7.04;100.00;102027.31;4979390;28;19928;-74
2023/12/17 11:19:00;;;;;;;;;;;;;;;7.27;100.00;102018.47;4970160;28;19918;-73
2023/12/17 11:21:27;;;;;;;;;;;;;;;7.07;100.00;102034.13;4982841;28;20020;-74
2023/12/17 11:23:52;;;;;;;;;;;;;;;7.42;100.00;102026.38;4978850;28;19922;-73
2023/12/17 11:26:18;;;;;;;;;;;;;;;7.54;100.00;102030.78;4977400;28;20476;-73
2023/12/17 11:28:44;;;;;;;;;;;;;;;7.36;100.00;102046.50;4970472;28;19918;-73
2023/12/17 11:31:11;;;;;;;;;;;;;;;7.48;100.00;102050.94;4984463;28;19969;-74
2023/12/17 11:33:37;;;;;;;;;;;;;;;7.64;100.00;102041.09;4981864;28;19921;-73
2023/12/17 11:36:03;;;;;;;;;;;;;;;7.73;100.00;102045.47;4963838;28;19917;-76
2023/12/17 11:38:29;;;;;;;;;;;;;;;7.83;100.00;102039.72;4977535;28;19926;-74
2023/12/17 11:40:54;;;;;;;;;;;;;;;8.26;100.00;102015.94;4965121;28;19918;-77
2023/12/17 11:43:25;;;;;;;;;;;;;;;8.14;100.00;102034.31;4969012;28;20361;-74
2023/12/17 11:45:50;;;;;;;;;;;;;;;7.75;100.00;102062.38;4963140;28;19918;-76
2023/12/17 11:48:20;;;;;;;;;;;;;;;7.91;100.00;102063.50;4964390;28;19926;-73
2023/12/17 11:50:46;;;;;;;;;;;;;;;7.86;100.00;102071.00;4965912;28;19926;-73
2023/12/17 11:53:16;;;;;;;;;;;;;;;8.17;100.00;102066.44;4967203;28;19975;-76
2023/12/17 11:55:45;;;;;;;;;;;;;;;7.88;100.00;102094.66;4981275;28;20013;-75
2023/12/17 11:58:10;;;;;;;;;;;;;;;7.94;100.00;102108.28;4982529;28;19921;-73
2023/12/17 12:00:36;;;;;;;;;;;;;;;7.96;100.00;102121.81;4982847;28;20053;-74
2023/12/17 12:03:02;;;;;;;;;;;;;;;7.90;100.00;102125.09;4967444;28;19976;-75
2023/12/17 12:05:27;;;;;;;;;;;;;;;8.12;100.00;102119.56;4965058;28;19929;-73
2023/12/17 12:07:53;;;;;;;;;;;;;;;7.98;100.00;102133.69;4981338;28;19948;-73
2023/12/17 12:10:18;;;;;;;;;;;;;;;8.05;100.00;102140.56;4983872;28;19917;-74
2023/12/17 12:12:44;;;;;;;;;;;;;;;8.15;100.00;102142.41;4983568;28;19940;-73
2023/12/17 12:15:09;;;;;;;;;;;;;;;8.21;100.00;102154.34;4984023;28;19928;-73
2023/12/17 12:17:38;;;;;;;;;;;;;;;8.35;100.00;102156.31;4982622;28;19917;-73
2023/12/17 12:20:08;;;;;;;;;;;;;;;8.51;100.00;102145.59;4980777;28;20052;-73
2023/12/17 12:22:37;;;;;;;;;;;;;;;8.44;100.00;102153.91;4964853;28;19925;-73
2023/12/17 12:25:03;;;;;;;;;;;;;;;8.32;100.00;102168.09;4985148;28;20722;-75
2023/12/17 12:27:28;;;;;;;;;;;;;;;8.49;100.00;102166.66;4965916;28;19921;-74